createdAt,value
2023-04-03T00:00:24.830Z,66.05
2023-04-03T00:03:15.826Z,66.53
2023-04-03T00:05:45.445Z,66.42
2023-04-03T00:08:17.207Z,66.61
2023-04-03T00:10:48.810Z,66.75
2023-04-03T00:13:20.113Z,66.51
2023-04-03T00:15:51.125Z,66.94
2023-04-03T00:18:22.235Z,66.78
2023-04-03T00:20:53.315Z,66.81
2023-04-03T00:23:24.773Z,67.05
2023-04-03T00:25:56.466Z,67.58
2023-04-03T00:28:27.890Z,67.91
2023-04-03T00:30:59.054Z,67.92
2023-04-03T00:33:30.455Z,68.31
2023-04-03T00:36:00.417Z,68.51
2023-04-03T00:38:31.883Z,68.90
2023-04-03T00:41:04.394Z,68.29
2023-04-03T00:43:36.042Z,68.45
2023-04-03T00:46:07.849Z,68.84
2023-04-03T00:48:43.021Z,69.27
2023-04-03T00:51:19.051Z,69.39
2023-04-03T00:53:55.574Z,69.55
2023-04-03T00:56:29.618Z,69.88
2023-04-03T00:59:06.260Z,69.84
2023-04-03T01:01:39.525Z,70.29
2023-04-03T01:04:30.183Z,70.00
2023-04-03T01:07:04.058Z,69.88
2023-04-03T01:09:36.185Z,69.79
2023-04-03T01:12:22.525Z,69.55
2023-04-03T01:14:55.468Z,69.84
2023-04-03T01:17:34.986Z,69.62
2023-04-03T01:20:46.259Z,68.76
2023-04-03T01:23:32.812Z,69.50
2023-04-03T01:26:04.861Z,69.33
2023-04-03T01:28:38.140Z,67.21
2023-04-03T01:31:18.088Z,66.65
2023-04-03T01:33:49.104Z,67.02
2023-04-03T01:36:23.016Z,66.59
2023-04-03T01:38:54.764Z,66.38
2023-04-03T01:41:26.716Z,66.63
2023-04-03T01:43:57.624Z,65.63
2023-04-03T01:46:28.759Z,65.32
2023-04-03T01:48:59.931Z,64.76
2023-04-03T01:51:31.126Z,64.85
2023-04-03T01:54:01.958Z,64.86
2023-04-03T01:56:33.032Z,65.09
2023-04-03T01:59:04.131Z,65.01
2023-04-03T02:01:35.475Z,65.40
2023-04-03T02:04:06.671Z,66.10
2023-04-03T02:06:38.027Z,66.53
2023-04-03T02:09:09.310Z,66.93
2023-04-03T02:11:40.453Z,67.26
2023-04-03T02:14:11.709Z,67.43
2023-04-03T02:16:42.782Z,67.84
2023-04-03T02:19:14.167Z,68.13
2023-04-03T02:21:45.187Z,68.24
2023-04-03T02:24:16.481Z,68.43
2023-04-03T02:26:46.492Z,68.55
2023-04-03T02:29:17.473Z,68.55
2023-04-03T02:31:48.769Z,68.83
2023-04-03T02:34:20.362Z,68.53
2023-04-03T02:36:51.671Z,68.73
2023-04-03T02:39:22.874Z,68.41
2023-04-03T02:41:53.928Z,68.40
2023-04-03T02:44:25.716Z,68.42
2023-04-03T02:46:56.590Z,68.47
2023-04-03T02:49:27.553Z,68.55
2023-04-03T02:51:58.521Z,68.65
2023-04-03T02:54:31.479Z,68.41
2023-04-03T02:57:02.914Z,68.45
2023-04-03T02:59:33.880Z,68.53
2023-04-03T03:02:04.843Z,68.46
2023-04-03T03:04:36.017Z,68.36
2023-04-03T03:07:07.462Z,68.21
2023-04-03T03:09:37.217Z,68.43
2023-04-03T03:12:09.064Z,68.40
2023-04-03T03:14:41.780Z,68.57
2023-04-03T03:17:12.878Z,68.67
2023-04-03T03:19:44.322Z,68.64
2023-04-03T03:22:15.623Z,68.74
2023-04-03T03:24:46.955Z,68.87
2023-04-03T03:27:18.272Z,68.93
2023-04-03T03:29:49.334Z,69.21
2023-04-03T03:32:20.661Z,69.02
2023-04-03T03:34:50.854Z,69.23
2023-04-03T03:37:22.211Z,69.12
2023-04-03T03:39:53.250Z,69.16
2023-04-03T03:42:24.460Z,69.29
2023-04-03T03:44:55.929Z,69.00
2023-04-03T03:47:27.227Z,69.13
2023-04-03T03:49:58.554Z,69.38
2023-04-03T03:52:31.056Z,69.54
2023-04-03T03:55:02.018Z,69.32
2023-04-03T03:57:33.869Z,69.44
2023-04-03T04:00:05.700Z,69.73
2023-04-03T04:02:35.389Z,69.62
2023-04-03T04:05:07.463Z,69.91
2023-04-03T04:07:38.645Z,70.01
2023-04-03T04:10:11.321Z,70.40
2023-04-03T04:12:42.406Z,70.26
2023-04-03T04:15:12.967Z,70.19
2023-04-03T04:17:44.176Z,70.39
2023-04-03T04:20:16.202Z,70.09
2023-04-03T04:22:47.290Z,70.15
2023-04-03T04:25:18.627Z,70.33
2023-04-03T04:27:49.742Z,70.29
2023-04-03T04:30:21.024Z,70.23
2023-04-03T04:32:52.202Z,70.43
2023-04-03T04:35:23.460Z,70.51
2023-04-03T04:37:54.734Z,70.46
2023-04-03T04:40:25.969Z,70.54
2023-04-03T04:42:57.351Z,70.59
2023-04-03T04:45:28.463Z,70.61
2023-04-03T04:48:00.211Z,70.62
2023-04-03T04:50:31.221Z,70.49
2023-04-03T04:53:02.158Z,70.49
2023-04-03T04:55:33.272Z,70.46
2023-04-03T04:58:04.295Z,70.64
2023-04-03T05:00:35.383Z,70.52
2023-04-03T05:03:06.666Z,70.53
2023-04-03T05:05:38.434Z,70.46
2023-04-03T05:08:10.441Z,70.32
2023-04-03T05:10:41.766Z,70.39
2023-04-03T05:13:12.601Z,70.17
2023-04-03T05:15:43.819Z,70.07
2023-04-03T05:18:14.920Z,70.01
2023-04-03T05:20:45.867Z,70.18
2023-04-03T05:23:17.115Z,69.82
2023-04-03T05:25:49.860Z,69.54
2023-04-03T05:28:20.801Z,69.62
2023-04-03T05:30:58.767Z,69.35
2023-04-03T05:33:28.696Z,69.49
2023-04-03T05:35:58.449Z,69.00
2023-04-03T05:38:30.322Z,68.61
2023-04-03T05:41:01.966Z,67.87
2023-04-03T05:43:31.742Z,68.34
2023-04-03T05:46:02.968Z,67.88
2023-04-03T05:48:34.100Z,68.20
2023-04-03T05:51:05.358Z,68.30
2023-04-03T05:53:39.218Z,67.43
2023-04-03T05:56:10.720Z,67.90
2023-04-03T05:58:41.766Z,68.14
2023-04-03T06:01:12.764Z,67.32
2023-04-03T06:03:43.890Z,67.62
2023-04-03T06:06:16.524Z,67.12
2023-04-03T06:08:47.611Z,66.89
2023-04-03T06:11:18.679Z,66.70
2023-04-03T06:13:49.768Z,66.46
2023-04-03T06:16:21.569Z,66.76
2023-04-03T06:18:52.672Z,66.01
2023-04-03T06:21:23.547Z,65.26
2023-04-03T06:23:54.673Z,65.04
2023-04-03T06:26:25.790Z,64.92
2023-04-03T06:28:57.016Z,64.72
2023-04-03T06:31:26.792Z,63.60
2023-04-03T06:33:58.430Z,62.71
2023-04-03T06:36:29.886Z,63.29
2023-04-03T06:39:00.948Z,63.65
2023-04-03T06:41:34.245Z,63.70
2023-04-03T06:44:07.324Z,63.10
2023-04-03T06:46:39.852Z,63.18
2023-04-03T06:49:11.544Z,62.02
2023-04-03T06:51:42.837Z,61.98
2023-04-03T06:54:13.955Z,61.63
2023-04-03T06:56:43.552Z,59.93
2023-04-03T06:59:15.994Z,60.21
2023-04-03T07:01:47.148Z,60.33
2023-04-03T07:04:18.244Z,59.92
2023-04-03T07:06:49.437Z,58.97
2023-04-03T07:09:20.481Z,58.44
2023-04-03T07:11:51.476Z,58.75
2023-04-03T07:14:22.614Z,57.13
2023-04-03T07:16:53.742Z,57.61
2023-04-03T07:19:25.440Z,56.38
2023-04-03T07:21:56.672Z,56.00
2023-04-03T07:24:28.398Z,56.05
2023-04-03T07:26:59.402Z,57.49
2023-04-03T07:29:31.043Z,57.00
2023-04-03T07:32:02.278Z,55.88
2023-04-03T07:34:31.767Z,56.36
2023-04-03T07:37:03.557Z,56.15
2023-04-03T07:39:34.811Z,55.87
2023-04-03T07:42:05.843Z,56.28
2023-04-03T07:44:37.614Z,55.44
2023-04-03T07:47:09.014Z,54.74
2023-04-03T07:49:41.583Z,53.39
2023-04-03T07:52:12.781Z,52.69
2023-04-03T07:54:44.279Z,52.05
2023-04-03T07:57:15.458Z,50.53
2023-04-03T07:59:44.942Z,49.32
2023-04-03T08:02:16.414Z,49.91
2023-04-03T08:04:47.431Z,49.86
2023-04-03T08:07:18.637Z,51.27
2023-04-03T08:09:50.246Z,51.42
2023-04-03T08:12:21.458Z,50.87
2023-04-03T08:14:52.461Z,52.64
2023-04-03T08:17:23.464Z,52.44
2023-04-03T08:19:54.416Z,51.05
2023-04-03T08:22:25.732Z,50.52
2023-04-03T08:24:59.272Z,48.82
2023-04-03T08:27:31.119Z,50.11
2023-04-03T08:30:02.350Z,50.86
2023-04-03T08:32:35.515Z,48.29
2023-04-03T08:35:07.183Z,47.61
2023-04-03T08:37:41.001Z,46.30
2023-04-03T08:40:18.099Z,44.86
2023-04-03T08:43:02.237Z,45.01
2023-04-03T08:45:46.435Z,45.14
2023-04-03T08:48:22.825Z,46.47
2023-04-03T08:51:03.091Z,46.84
2023-04-03T08:53:42.416Z,47.19
2023-04-03T08:56:15.974Z,48.39
2023-04-03T08:58:53.818Z,49.98
2023-04-03T09:01:28.640Z,48.64
2023-04-03T09:03:59.652Z,47.22
2023-04-03T09:06:33.845Z,48.71
2023-04-03T09:09:16.035Z,50.04
2023-04-03T09:11:58.197Z,49.95
2023-04-03T09:14:38.400Z,50.25
2023-04-03T09:17:17.422Z,49.10
2023-04-03T09:19:57.104Z,48.92
2023-04-03T09:22:32.777Z,47.19
2023-04-03T09:25:13.007Z,46.73
2023-04-03T09:27:43.939Z,47.17
2023-04-03T09:30:19.778Z,47.39
2023-04-03T09:32:52.876Z,48.04
2023-04-03T09:35:36.354Z,47.75
2023-04-03T09:38:23.905Z,47.08
2023-04-03T09:41:08.580Z,46.09
2023-04-03T09:43:40.873Z,47.43
2023-04-03T09:46:30.736Z,47.14
2023-04-03T09:51:38.385Z,47.85
2023-04-03T09:54:33.467Z,47.16
2023-04-03T09:57:08.429Z,48.17
2023-04-03T09:59:43.336Z,47.04
2023-04-03T10:02:33.227Z,45.41
2023-04-03T10:07:41.278Z,44.29
2023-04-03T10:10:26.753Z,44.91
2023-04-03T10:13:16.489Z,45.77
2023-04-03T10:15:57.981Z,46.04
2023-04-03T10:18:45.536Z,45.99
2023-04-03T10:21:31.414Z,44.82
2023-04-03T10:24:12.298Z,44.43
2023-04-03T10:26:52.738Z,44.70
2023-04-03T10:29:38.642Z,46.02
2023-04-03T10:32:31.397Z,43.87
2023-04-03T10:35:10.953Z,42.78
2023-04-03T10:37:56.709Z,41.67
2023-04-03T10:40:38.348Z,42.01
2023-04-03T10:43:18.321Z,42.55
2023-04-03T10:45:59.581Z,42.91
2023-04-03T10:48:50.247Z,45.17
2023-04-03T10:51:30.125Z,44.71
2023-04-03T10:54:08.101Z,44.71
2023-04-03T10:56:44.791Z,44.46
2023-04-03T10:59:25.185Z,44.54
2023-04-03T11:01:58.855Z,44.57
2023-04-03T11:04:32.997Z,45.37
2023-04-03T11:07:09.507Z,46.17
2023-04-03T11:09:44.873Z,45.66
2023-04-03T11:12:21.087Z,44.59
2023-04-03T11:14:55.543Z,42.94
2023-04-03T11:17:35.630Z,44.96
2023-04-03T11:20:17.569Z,44.10
2023-04-03T11:22:53.600Z,42.26
2023-04-03T11:25:27.659Z,42.41
2023-04-03T11:28:02.804Z,42.01
2023-04-03T11:30:40.419Z,42.72
2023-04-03T11:33:44.795Z,41.88
2023-04-03T11:36:26.948Z,42.33
2023-04-03T11:39:19.057Z,43.47
2023-04-03T11:41:53.436Z,42.61
2023-04-03T11:44:40.616Z,44.26
2023-04-03T11:47:13.329Z,44.63
2023-04-03T11:50:30.872Z,43.89
2023-04-03T11:53:28.240Z,43.85
2023-04-03T11:56:28.871Z,44.06
2023-04-03T11:59:28.557Z,44.15
2023-04-03T12:02:00.206Z,44.83
2023-04-03T12:04:32.098Z,45.12
2023-04-03T12:07:20.057Z,43.80
2023-04-03T12:10:05.048Z,44.87
2023-04-03T12:12:41.648Z,43.41
2023-04-03T12:15:46.533Z,43.46
2023-04-03T12:18:51.645Z,42.45
2023-04-03T12:21:24.490Z,42.83
2023-04-03T12:24:27.826Z,43.24
2023-04-03T12:27:11.927Z,42.59
2023-04-03T12:29:48.752Z,42.79
2023-04-03T12:32:29.029Z,43.54
2023-04-03T12:35:17.557Z,42.62
2023-04-03T12:38:03.108Z,42.49
2023-04-03T12:40:45.114Z,43.01
2023-04-03T12:43:31.807Z,42.34
2023-04-03T12:46:06.545Z,41.58
2023-04-03T12:48:49.194Z,42.26
2023-04-03T12:51:23.823Z,42.61
2023-04-03T12:54:00.648Z,40.51
2023-04-03T12:56:34.556Z,41.34
2023-04-03T12:59:20.856Z,42.42
2023-04-03T13:01:59.908Z,41.95
2023-04-03T13:04:33.413Z,42.30
2023-04-03T13:07:05.163Z,43.06
2023-04-03T13:09:36.214Z,43.55
2023-04-03T13:12:11.864Z,42.04
2023-04-03T13:14:53.461Z,43.33
2023-04-03T13:17:24.774Z,43.77
2023-04-03T13:19:56.126Z,41.82
2023-04-03T13:22:29.459Z,41.69
2023-04-03T13:25:06.430Z,43.20
2023-04-03T13:27:38.001Z,42.67
2023-04-03T13:30:22.294Z,42.80
2023-04-03T13:32:53.716Z,41.57
2023-04-03T13:35:35.571Z,41.51
2023-04-03T13:38:23.273Z,41.47
2023-04-03T13:41:09.217Z,41.23
2023-04-03T13:43:42.001Z,41.10
2023-04-03T13:46:29.179Z,41.85
2023-04-03T13:49:22.743Z,41.40
2023-04-03T13:52:06.431Z,42.65
2023-04-03T13:54:41.118Z,43.51
2023-04-03T13:57:20.210Z,44.31
2023-04-03T13:59:52.030Z,41.47
2023-04-03T14:02:25.761Z,40.76
2023-04-03T14:04:59.379Z,41.70
2023-04-03T14:07:32.324Z,42.38
2023-04-03T14:10:03.657Z,42.35
2023-04-03T14:12:35.315Z,42.05
2023-04-03T14:15:14.488Z,43.12
2023-04-03T14:17:45.774Z,43.07
2023-04-03T14:20:21.584Z,42.66
2023-04-03T14:22:53.697Z,42.60
2023-04-03T14:25:26.687Z,41.28
2023-04-03T14:27:58.733Z,40.18
2023-04-03T14:30:32.848Z,39.61
2023-04-03T14:33:04.152Z,39.39
2023-04-03T14:35:33.702Z,39.11
2023-04-03T14:38:07.858Z,37.79
2023-04-03T14:40:39.095Z,37.58
2023-04-03T14:43:14.489Z,37.75
2023-04-03T14:45:45.970Z,38.28
2023-04-03T14:48:21.551Z,37.91
2023-04-03T14:51:04.449Z,37.40
2023-04-03T14:53:39.077Z,38.90
2023-04-03T14:56:16.863Z,39.11
2023-04-03T14:58:51.663Z,39.45
2023-04-03T15:01:22.998Z,39.63
2023-04-03T15:03:57.366Z,39.98
2023-04-03T15:06:29.127Z,38.49
2023-04-03T15:09:01.145Z,38.39
2023-04-03T15:11:32.661Z,37.85
2023-04-03T15:14:04.017Z,37.81
2023-04-03T15:16:35.534Z,38.92
2023-04-03T15:19:07.359Z,39.27
2023-04-03T15:21:38.557Z,40.27
2023-04-03T15:24:10.862Z,40.48
2023-04-03T15:26:42.696Z,41.40
2023-04-03T15:29:13.917Z,41.56
2023-04-03T15:31:45.142Z,41.45
2023-04-03T15:36:50.421Z,42.74
2023-04-03T15:39:21.798Z,42.22
2023-04-03T15:41:53.415Z,42.25
2023-04-03T15:44:24.924Z,41.52
2023-04-03T15:46:56.080Z,41.30
2023-04-03T15:49:25.804Z,40.53
2023-04-03T15:51:56.886Z,40.66
2023-04-03T15:54:28.148Z,39.05
2023-04-03T15:56:59.412Z,38.87
2023-04-03T15:59:33.073Z,39.31
2023-04-03T16:02:07.445Z,40.49
2023-04-03T16:04:38.883Z,39.51
2023-04-03T16:07:10.058Z,39.67
2023-04-03T16:09:41.329Z,40.22
2023-04-03T16:12:10.607Z,40.36
2023-04-03T16:14:41.877Z,40.50
2023-04-03T16:17:11.214Z,40.31
2023-04-03T16:19:42.717Z,40.38
2023-04-03T16:22:13.932Z,41.34
2023-04-03T16:24:45.827Z,42.10
2023-04-03T16:27:17.117Z,42.17
2023-04-03T16:29:48.200Z,42.31
2023-04-03T16:32:19.828Z,43.24
2023-04-03T16:34:51.543Z,43.06
2023-04-03T16:37:22.582Z,43.07
2023-04-03T16:39:54.945Z,42.95
2023-04-03T16:42:26.277Z,42.61
2023-04-03T16:45:02.198Z,43.32
2023-04-03T16:47:33.357Z,42.63
2023-04-03T16:50:09.509Z,41.99
2023-04-03T16:52:46.783Z,42.68
2023-04-03T16:55:18.288Z,42.90
2023-04-03T16:57:49.397Z,42.44
2023-04-03T17:00:21.731Z,42.47
2023-04-03T17:02:52.649Z,42.77
2023-04-03T17:05:25.221Z,42.89
2023-04-03T17:07:56.529Z,43.10
2023-04-03T17:10:28.054Z,43.64
2023-04-03T17:12:59.624Z,44.51
2023-04-03T17:15:31.073Z,44.12
2023-04-03T17:18:02.376Z,44.34
2023-04-03T17:20:34.879Z,44.66
2023-04-03T17:23:06.390Z,45.15
2023-04-03T17:25:37.719Z,45.59
2023-04-03T17:28:09.121Z,45.64
2023-04-03T17:30:40.439Z,46.31
2023-04-03T17:33:11.883Z,46.57
2023-04-03T17:35:43.327Z,46.97
2023-04-03T17:38:12.814Z,46.92
2023-04-03T17:40:45.251Z,46.97
2023-04-03T17:43:16.994Z,47.48
2023-04-03T17:45:48.302Z,47.75
2023-04-03T17:48:19.402Z,47.68
2023-04-03T17:50:50.583Z,47.77
2023-04-03T17:53:20.488Z,47.11
2023-04-03T17:55:51.663Z,46.77
2023-04-03T17:58:23.079Z,46.87
2023-04-03T18:00:54.370Z,46.92
2023-04-03T18:03:25.884Z,46.88
2023-04-03T18:05:57.225Z,47.65
2023-04-03T18:08:28.491Z,47.37
2023-04-03T18:10:58.191Z,47.65
2023-04-03T18:13:29.775Z,47.86
2023-04-03T18:16:01.488Z,48.04
2023-04-03T18:18:32.896Z,48.06
2023-04-03T18:21:04.873Z,47.90
2023-04-03T18:23:39.100Z,48.50
2023-04-03T18:26:16.483Z,48.80
2023-04-03T18:28:55.891Z,48.86
2023-04-03T18:31:32.353Z,49.08
2023-04-03T18:34:03.991Z,49.43
2023-04-03T18:36:35.144Z,49.15
2023-04-03T18:39:06.621Z,48.89
2023-04-03T18:41:40.621Z,47.80
2023-04-03T18:44:16.562Z,48.62
2023-04-03T18:46:48.329Z,48.57
2023-04-03T18:49:19.554Z,48.39
2023-04-03T18:51:51.432Z,48.43
2023-04-03T18:54:22.801Z,48.65
2023-04-03T18:56:54.866Z,48.64
2023-04-03T18:59:27.588Z,48.49
2023-04-03T19:02:00.353Z,48.72
2023-04-03T19:04:33.694Z,48.96
2023-04-03T19:07:06.652Z,49.28
2023-04-03T19:09:38.826Z,49.84
2023-04-03T19:12:11.015Z,49.51
2023-04-03T19:14:42.493Z,49.15
2023-04-03T19:17:14.264Z,49.58
2023-04-03T19:19:45.541Z,50.00
2023-04-03T19:22:15.271Z,49.71
2023-04-03T19:24:46.802Z,50.01
2023-04-03T19:27:17.910Z,50.82
2023-04-03T19:29:49.748Z,49.23
2023-04-03T19:32:21.047Z,49.36
2023-04-03T19:34:52.594Z,49.34
2023-04-03T19:37:24.997Z,49.86
2023-04-03T19:39:56.170Z,49.49
2023-04-03T19:42:28.811Z,48.98
2023-04-03T19:45:00.604Z,48.87
2023-04-03T19:47:35.510Z,50.18
2023-04-03T19:50:08.069Z,50.02
2023-04-03T19:52:39.345Z,49.92
2023-04-03T19:55:09.905Z,50.71
2023-04-03T19:57:41.396Z,51.76
2023-04-03T20:00:15.007Z,52.67
2023-04-03T20:02:46.492Z,52.45
2023-04-03T20:05:18.644Z,53.95
2023-04-03T20:07:48.725Z,53.80
2023-04-03T20:10:18.717Z,53.41
2023-04-03T20:12:51.307Z,50.92
2023-04-03T20:15:23.141Z,52.30
2023-04-03T20:17:54.683Z,53.17
2023-04-03T20:20:24.120Z,52.73
2023-04-03T20:23:15.493Z,53.21
2023-04-03T20:26:01.460Z,54.06
2023-04-03T20:28:38.618Z,54.38
2023-04-03T20:31:12.115Z,54.61
2023-04-03T20:33:43.650Z,54.93
2023-04-03T20:36:15.879Z,55.80
2023-04-03T20:38:47.981Z,55.87
2023-04-03T20:41:19.433Z,55.90
2023-04-03T20:43:50.745Z,56.04
2023-04-03T20:46:25.477Z,55.89
2023-04-03T20:48:58.221Z,55.55
2023-04-03T20:51:29.435Z,54.81
2023-04-03T20:54:00.690Z,53.44
2023-04-03T20:56:33.200Z,53.86
2023-04-03T20:59:05.451Z,52.85
2023-04-03T21:01:36.920Z,53.28
2023-04-03T21:04:16.114Z,53.73
2023-04-03T21:07:21.662Z,53.50
2023-04-03T21:10:28.503Z,53.00
2023-04-03T21:13:34.858Z,53.13
2023-04-03T21:16:04.319Z,52.39
2023-04-03T21:18:53.390Z,52.33
2023-04-03T21:21:26.237Z,51.84
2023-04-03T21:23:58.428Z,50.94
2023-04-03T21:26:30.124Z,51.54
2023-04-03T21:29:01.840Z,51.18
2023-04-03T21:34:36.897Z,51.83
2023-04-03T21:37:09.577Z,51.53
2023-04-03T21:39:40.836Z,51.11
2023-04-03T21:42:12.143Z,51.32
2023-04-03T21:44:43.147Z,51.06
2023-04-03T21:47:14.281Z,51.33
2023-04-03T21:49:45.385Z,51.64
2023-04-03T21:52:17.057Z,50.97
2023-04-03T21:54:48.396Z,51.54
2023-04-03T21:57:21.065Z,51.21
2023-04-03T21:59:53.230Z,51.25
2023-04-03T22:02:22.765Z,51.83
2023-04-03T22:04:54.570Z,51.79
2023-04-03T22:07:25.752Z,51.89
2023-04-03T22:09:56.874Z,51.97
2023-04-03T22:12:29.564Z,50.65
2023-04-03T22:15:02.385Z,51.08
2023-04-03T22:17:34.227Z,51.89
2023-04-03T22:20:05.597Z,51.99
2023-04-03T22:22:35.167Z,52.89
2023-04-03T22:25:07.485Z,52.20
2023-04-03T22:27:38.594Z,49.40
2023-04-03T22:30:11.701Z,50.67
2023-04-03T22:32:43.240Z,50.81
2023-04-03T22:35:14.525Z,50.53
2023-04-03T22:37:46.123Z,50.62
2023-04-03T22:40:18.034Z,49.03
2023-04-03T22:42:50.888Z,49.74
2023-04-03T22:45:22.287Z,49.70
2023-04-03T22:47:53.650Z,49.32
2023-04-03T22:50:24.603Z,49.00
2023-04-03T22:52:55.669Z,48.35
2023-04-03T22:55:27.063Z,49.01
2023-04-03T22:57:58.098Z,48.33
2023-04-03T23:00:29.327Z,47.91
2023-04-03T23:03:01.401Z,47.97
2023-04-03T23:05:32.506Z,48.67
2023-04-03T23:08:03.522Z,48.74
2023-04-03T23:10:34.502Z,49.23
2023-04-03T23:13:05.629Z,48.23
2023-04-03T23:15:36.899Z,48.63
2023-04-03T23:18:08.340Z,48.61
2023-04-03T23:20:38.265Z,49.21
2023-04-03T23:23:09.435Z,49.39
2023-04-03T23:25:40.774Z,49.80
2023-04-03T23:28:12.194Z,49.52
2023-04-03T23:30:45.158Z,49.51
2023-04-03T23:33:16.356Z,50.03
2023-04-03T23:35:48.684Z,50.75
2023-04-03T23:38:20.054Z,49.35
2023-04-03T23:40:51.328Z,49.79
2023-04-03T23:43:21.233Z,50.46
2023-04-03T23:45:52.832Z,51.66
2023-04-03T23:48:24.160Z,51.99
2023-04-03T23:50:55.319Z,52.17
2023-04-03T23:53:27.260Z,51.30
2023-04-03T23:55:58.394Z,50.28
2023-04-03T23:58:29.391Z,51.97
